sensor_id;sensor_type;location;lat;lon;timestamp;temperature;humidity
68485;DHT22;55472;50.060;21.960;2023-02-15T00:02:00;2.80;88.70
68485;DHT22;55472;50.060;21.960;2023-02-15T00:04:26;2.80;88.80
68485;DHT22;55472;50.060;21.960;2023-02-15T00:07:14;2.80;88.80
68485;DHT22;55472;50.060;21.960;2023-02-15T00:09:41;2.80;88.80
68485;DHT22;55472;50.060;21.960;2023-02-15T00:12:08;2.80;88.80
68485;DHT22;55472;50.060;21.960;2023-02-15T00:14:35;2.80;89.00
68485;DHT22;55472;50.060;21.960;2023-02-15T00:17:01;2.80;88.90
68485;DHT22;55472;50.060;21.960;2023-02-15T00:19:28;2.80;88.90
68485;DHT22;55472;50.060;21.960;2023-02-15T00:21:54;2.80;88.80
68485;DHT22;55472;50.060;21.960;2023-02-15T00:24:21;2.80;88.90
68485;DHT22;55472;50.060;21.960;2023-02-15T00:26:47;2.80;88.90
68485;DHT22;55472;50.060;21.960;2023-02-15T00:29:16;2.80;88.70
68485;DHT22;55472;50.060;21.960;2023-02-15T00:31:43;2.80;88.70
68485;DHT22;55472;50.060;21.960;2023-02-15T00:34:18;2.70;88.70
68485;DHT22;55472;50.060;21.960;2023-02-15T00:36:47;2.80;88.60
68485;DHT22;55472;50.060;21.960;2023-02-15T00:39:14;2.70;88.60
68485;DHT22;55472;50.060;21.960;2023-02-15T00:41:40;2.70;88.60
68485;DHT22;55472;50.060;21.960;2023-02-15T00:44:07;2.70;88.60
68485;DHT22;55472;50.060;21.960;2023-02-15T00:46:34;2.70;88.60
68485;DHT22;55472;50.060;21.960;2023-02-15T00:49:00;2.70;88.70
68485;DHT22;55472;50.060;21.960;2023-02-15T00:51:27;2.70;88.30
68485;DHT22;55472;50.060;21.960;2023-02-15T00:53:53;2.70;88.10
68485;DHT22;55472;50.060;21.960;2023-02-15T00:56:20;2.70;87.90
68485;DHT22;55472;50.060;21.960;2023-02-15T00:58:46;2.70;87.90
68485;DHT22;55472;50.060;21.960;2023-02-15T01:01:16;2.70;88.10
68485;DHT22;55472;50.060;21.960;2023-02-15T01:03:45;2.70;88.10
68485;DHT22;55472;50.060;21.960;2023-02-15T01:06:13;2.70;87.90
68485;DHT22;55472;50.060;21.960;2023-02-15T01:08:40;2.60;88.10
68485;DHT22;55472;50.060;21.960;2023-02-15T01:11:26;2.60;88.10
68485;DHT22;55472;50.060;21.960;2023-02-15T01:13:55;2.60;88.10
68485;DHT22;55472;50.060;21.960;2023-02-15T01:16:24;2.60;88.20
68485;DHT22;55472;50.060;21.960;2023-02-15T01:18:51;2.60;88.40
68485;DHT22;55472;50.060;21.960;2023-02-15T01:21:20;2.60;88.30
68485;DHT22;55472;50.060;21.960;2023-02-15T01:23:47;2.60;88.40
68485;DHT22;55472;50.060;21.960;2023-02-15T01:26:15;2.60;88.30
68485;DHT22;55472;50.060;21.960;2023-02-15T01:28:41;2.60;88.30
68485;DHT22;55472;50.060;21.960;2023-02-15T01:31:14;2.60;88.30
68485;DHT22;55472;50.060;21.960;2023-02-15T01:33:41;2.60;88.30
68485;DHT22;55472;50.060;21.960;2023-02-15T01:36:07;2.60;88.30
68485;DHT22;55472;50.060;21.960;2023-02-15T01:38:35;2.60;88.50
68485;DHT22;55472;50.060;21.960;2023-02-15T01:41:01;2.60;88.30
68485;DHT22;55472;50.060;21.960;2023-02-15T01:43:49;2.50;88.10
68485;DHT22;55472;50.060;21.960;2023-02-15T01:46:24;2.50;88.00
68485;DHT22;55472;50.060;21.960;2023-02-15T01:49:15;2.50;87.80
68485;DHT22;55472;50.060;21.960;2023-02-15T01:51:45;2.50;87.60
68485;DHT22;55472;50.060;21.960;2023-02-15T01:56:46;2.50;87.50
68485;DHT22;55472;50.060;21.960;2023-02-15T01:59:18;2.50;87.50
68485;DHT22;55472;50.060;21.960;2023-02-15T02:07:02;2.50;87.00
68485;DHT22;55472;50.060;21.960;2023-02-15T02:09:30;2.50;86.80
68485;DHT22;55472;50.060;21.960;2023-02-15T02:11:56;2.50;86.50
68485;DHT22;55472;50.060;21.960;2023-02-15T02:14:23;2.50;86.30
68485;DHT22;55472;50.060;21.960;2023-02-15T02:16:56;2.40;86.50
68485;DHT22;55472;50.060;21.960;2023-02-15T02:35:05;2.40;86.80
68485;DHT22;55472;50.060;21.960;2023-02-15T02:46:30;2.30;86.10
68485;DHT22;55472;50.060;21.960;2023-02-15T02:49:01;2.30;86.20
68485;DHT22;55472;50.060;21.960;2023-02-15T02:51:27;2.30;86.10
68485;DHT22;55472;50.060;21.960;2023-02-15T02:53:56;2.30;86.00
68485;DHT22;55472;50.060;21.960;2023-02-15T02:56:28;2.30;85.90
68485;DHT22;55472;50.060;21.960;2023-02-15T02:59:04;2.30;86.10
68485;DHT22;55472;50.060;21.960;2023-02-15T03:01:46;2.30;85.90
68485;DHT22;55472;50.060;21.960;2023-02-15T03:04:18;2.30;85.60
68485;DHT22;55472;50.060;21.960;2023-02-15T03:07:00;2.30;85.70
68485;DHT22;55472;50.060;21.960;2023-02-15T03:09:31;2.30;85.60
68485;DHT22;55472;50.060;21.960;2023-02-15T03:12:26;2.30;85.10
68485;DHT22;55472;50.060;21.960;2023-02-15T03:15:10;2.30;85.40
68485;DHT22;55472;50.060;21.960;2023-02-15T03:17:51;2.30;85.20
68485;DHT22;55472;50.060;21.960;2023-02-15T03:20:32;2.30;85.10
68485;DHT22;55472;50.060;21.960;2023-02-15T03:23:04;2.30;85.40
68485;DHT22;55472;50.060;21.960;2023-02-15T03:25:43;2.20;85.10
68485;DHT22;55472;50.060;21.960;2023-02-15T03:28:19;2.20;85.20
68485;DHT22;55472;50.060;21.960;2023-02-15T03:30:52;2.30;85.40
68485;DHT22;55472;50.060;21.960;2023-02-15T03:33:21;2.30;85.50
68485;DHT22;55472;50.060;21.960;2023-02-15T03:36:04;2.20;85.80
68485;DHT22;55472;50.060;21.960;2023-02-15T03:41:54;2.20;86.00
68485;DHT22;55472;50.060;21.960;2023-02-15T03:44:30;2.20;86.30
68485;DHT22;55472;50.060;21.960;2023-02-15T03:47:13;2.20;86.40
68485;DHT22;55472;50.060;21.960;2023-02-15T03:52:23;2.20;86.60
68485;DHT22;55472;50.060;21.960;2023-02-15T03:54:51;2.20;86.50
68485;DHT22;55472;50.060;21.960;2023-02-15T03:57:28;2.20;86.50
68485;DHT22;55472;50.060;21.960;2023-02-15T04:00:17;2.20;86.50
68485;DHT22;55472;50.060;21.960;2023-02-15T04:05:44;2.10;86.60
68485;DHT22;55472;50.060;21.960;2023-02-15T04:08:11;2.10;86.80
68485;DHT22;55472;50.060;21.960;2023-02-15T04:10:38;2.10;86.90
68485;DHT22;55472;50.060;21.960;2023-02-15T04:13:31;2.10;87.00
68485;DHT22;55472;50.060;21.960;2023-02-15T04:15:58;2.10;87.00
68485;DHT22;55472;50.060;21.960;2023-02-15T04:18:34;2.10;87.10
68485;DHT22;55472;50.060;21.960;2023-02-15T04:21:22;2.10;86.70
68485;DHT22;55472;50.060;21.960;2023-02-15T04:24:09;2.10;86.60
68485;DHT22;55472;50.060;21.960;2023-02-15T04:26:54;2.10;86.40
68485;DHT22;55472;50.060;21.960;2023-02-15T04:29:22;2.10;86.40
68485;DHT22;55472;50.060;21.960;2023-02-15T04:31:50;2.10;86.30
68485;DHT22;55472;50.060;21.960;2023-02-15T04:34:17;2.10;86.30
68485;DHT22;55472;50.060;21.960;2023-02-15T04:36:43;2.00;86.10
68485;DHT22;55472;50.060;21.960;2023-02-15T04:39:13;2.00;86.10
68485;DHT22;55472;50.060;21.960;2023-02-15T04:41:39;2.00;86.20
68485;DHT22;55472;50.060;21.960;2023-02-15T04:44:06;2.00;86.30
68485;DHT22;55472;50.060;21.960;2023-02-15T04:46:32;2.00;86.20
68485;DHT22;55472;50.060;21.960;2023-02-15T04:48:58;2.00;86.10
68485;DHT22;55472;50.060;21.960;2023-02-15T04:51:25;2.00;85.90
68485;DHT22;55472;50.060;21.960;2023-02-15T04:53:51;2.00;85.80
68485;DHT22;55472;50.060;21.960;2023-02-15T04:56:21;2.00;85.60
68485;DHT22;55472;50.060;21.960;2023-02-15T04:58:47;2.00;85.50
68485;DHT22;55472;50.060;21.960;2023-02-15T05:01:14;2.00;85.40
68485;DHT22;55472;50.060;21.960;2023-02-15T05:03:40;2.00;85.40
68485;DHT22;55472;50.060;21.960;2023-02-15T05:06:06;2.00;85.80
68485;DHT22;55472;50.060;21.960;2023-02-15T05:08:33;2.00;85.60
68485;DHT22;55472;50.060;21.960;2023-02-15T05:10:59;2.00;86.00
68485;DHT22;55472;50.060;21.960;2023-02-15T05:13:25;2.00;86.30
68485;DHT22;55472;50.060;21.960;2023-02-15T05:15:53;2.00;86.30
68485;DHT22;55472;50.060;21.960;2023-02-15T05:18:20;2.00;86.20
68485;DHT22;55472;50.060;21.960;2023-02-15T05:20:47;2.00;86.20
68485;DHT22;55472;50.060;21.960;2023-02-15T05:23:14;2.00;86.00
68485;DHT22;55472;50.060;21.960;2023-02-15T05:25:41;2.00;85.70
68485;DHT22;55472;50.060;21.960;2023-02-15T05:28:30;2.00;85.70
68485;DHT22;55472;50.060;21.960;2023-02-15T05:31:10;1.90;85.50
68485;DHT22;55472;50.060;21.960;2023-02-15T05:33:38;1.90;84.90
68485;DHT22;55472;50.060;21.960;2023-02-15T05:36:06;1.90;83.70
68485;DHT22;55472;50.060;21.960;2023-02-15T05:38:32;1.90;83.20
68485;DHT22;55472;50.060;21.960;2023-02-15T05:40:59;1.90;82.80
68485;DHT22;55472;50.060;21.960;2023-02-15T05:43:26;1.90;82.60
68485;DHT22;55472;50.060;21.960;2023-02-15T05:45:54;1.90;82.70
68485;DHT22;55472;50.060;21.960;2023-02-15T05:48:22;1.90;82.60
68485;DHT22;55472;50.060;21.960;2023-02-15T05:51:10;1.90;82.60
68485;DHT22;55472;50.060;21.960;2023-02-15T05:53:41;1.90;83.10
68485;DHT22;55472;50.060;21.960;2023-02-15T05:56:10;1.90;83.40
68485;DHT22;55472;50.060;21.960;2023-02-15T05:58:38;1.90;83.60
68485;DHT22;55472;50.060;21.960;2023-02-15T06:01:11;1.90;83.40
68485;DHT22;55472;50.060;21.960;2023-02-15T06:03:39;1.90;83.20
68485;DHT22;55472;50.060;21.960;2023-02-15T06:06:05;1.90;83.00
68485;DHT22;55472;50.060;21.960;2023-02-15T06:08:33;1.90;83.10
68485;DHT22;55472;50.060;21.960;2023-02-15T06:11:00;1.90;83.00
68485;DHT22;55472;50.060;21.960;2023-02-15T06:13:27;1.90;83.30
68485;DHT22;55472;50.060;21.960;2023-02-15T06:15:54;1.90;83.70
68485;DHT22;55472;50.060;21.960;2023-02-15T06:18:20;1.90;83.70
68485;DHT22;55472;50.060;21.960;2023-02-15T06:20:47;1.90;83.70
68485;DHT22;55472;50.060;21.960;2023-02-15T06:23:14;1.90;83.80
68485;DHT22;55472;50.060;21.960;2023-02-15T06:25:40;1.90;83.60
68485;DHT22;55472;50.060;21.960;2023-02-15T06:28:07;1.90;83.60
68485;DHT22;55472;50.060;21.960;2023-02-15T06:30:33;1.90;83.30
68485;DHT22;55472;50.060;21.960;2023-02-15T06:32:59;2.00;83.00
68485;DHT22;55472;50.060;21.960;2023-02-15T06:35:25;2.00;82.10
68485;DHT22;55472;50.060;21.960;2023-02-15T06:37:51;2.00;81.20
68485;DHT22;55472;50.060;21.960;2023-02-15T06:40:18;2.00;80.00
68485;DHT22;55472;50.060;21.960;2023-02-15T06:42:45;2.00;79.70
68485;DHT22;55472;50.060;21.960;2023-02-15T06:45:11;2.00;79.30
68485;DHT22;55472;50.060;21.960;2023-02-15T06:47:38;2.00;79.80
68485;DHT22;55472;50.060;21.960;2023-02-15T06:50:05;2.10;79.80
68485;DHT22;55472;50.060;21.960;2023-02-15T06:52:32;2.10;80.30
68485;DHT22;55472;50.060;21.960;2023-02-15T06:54:59;2.10;80.10
68485;DHT22;55472;50.060;21.960;2023-02-15T06:57:25;2.20;80.40
68485;DHT22;55472;50.060;21.960;2023-02-15T06:59:51;2.20;80.30
68485;DHT22;55472;50.060;21.960;2023-02-15T07:02:18;2.30;79.80
68485;DHT22;55472;50.060;21.960;2023-02-15T07:04:44;2.40;79.10
68485;DHT22;55472;50.060;21.960;2023-02-15T07:07:13;2.40;78.50
68485;DHT22;55472;50.060;21.960;2023-02-15T07:09:39;2.40;78.20
68485;DHT22;55472;50.060;21.960;2023-02-15T07:12:06;2.50;78.10
68485;DHT22;55472;50.060;21.960;2023-02-15T07:14:51;2.50;77.70
68485;DHT22;55472;50.060;21.960;2023-02-15T07:17:18;2.50;77.20
68485;DHT22;55472;50.060;21.960;2023-02-15T07:19:44;2.50;76.40
68485;DHT22;55472;50.060;21.960;2023-02-15T07:22:10;2.60;76.30
68485;DHT22;55472;50.060;21.960;2023-02-15T07:24:36;2.60;76.30
68485;DHT22;55472;50.060;21.960;2023-02-15T07:27:02;2.60;76.30
68485;DHT22;55472;50.060;21.960;2023-02-15T07:29:29;2.60;76.50
68485;DHT22;55472;50.060;21.960;2023-02-15T07:31:55;2.60;76.80
68485;DHT22;55472;50.060;21.960;2023-02-15T07:34:21;2.70;76.00
68485;DHT22;55472;50.060;21.960;2023-02-15T07:36:50;2.70;76.10
68485;DHT22;55472;50.060;21.960;2023-02-15T07:39:16;2.70;76.10
68485;DHT22;55472;50.060;21.960;2023-02-15T07:41:42;2.80;75.90
68485;DHT22;55472;50.060;21.960;2023-02-15T07:44:13;2.80;75.50
68485;DHT22;55472;50.060;21.960;2023-02-15T07:46:40;2.80;75.50
68485;DHT22;55472;50.060;21.960;2023-02-15T07:49:07;2.80;75.70
68485;DHT22;55472;50.060;21.960;2023-02-15T07:51:33;2.80;75.70
68485;DHT22;55472;50.060;21.960;2023-02-15T07:54:00;2.90;76.10
68485;DHT22;55472;50.060;21.960;2023-02-15T07:56:26;2.90;75.90
68485;DHT22;55472;50.060;21.960;2023-02-15T07:58:52;3.00;75.50
68485;DHT22;55472;50.060;21.960;2023-02-15T08:01:30;3.00;75.90
68485;DHT22;55472;50.060;21.960;2023-02-15T08:03:57;3.10;75.70
68485;DHT22;55472;50.060;21.960;2023-02-15T08:06:26;3.10;74.50
68485;DHT22;55472;50.060;21.960;2023-02-15T08:08:54;3.20;74.10
68485;DHT22;55472;50.060;21.960;2023-02-15T08:11:25;3.30;74.30
68485;DHT22;55472;50.060;21.960;2023-02-15T08:14:01;3.40;73.90
68485;DHT22;55472;50.060;21.960;2023-02-15T08:16:48;3.50;74.10
68485;DHT22;55472;50.060;21.960;2023-02-15T08:19:18;3.50;73.00
68485;DHT22;55472;50.060;21.960;2023-02-15T08:21:48;3.60;72.80
68485;DHT22;55472;50.060;21.960;2023-02-15T08:24:21;3.60;71.80
68485;DHT22;55472;50.060;21.960;2023-02-15T08:26:49;3.60;71.20
68485;DHT22;55472;50.060;21.960;2023-02-15T08:29:18;3.60;70.90
68485;DHT22;55472;50.060;21.960;2023-02-15T08:31:49;3.50;71.20
68485;DHT22;55472;50.060;21.960;2023-02-15T08:34:18;3.60;70.90
68485;DHT22;55472;50.060;21.960;2023-02-15T08:36:45;3.60;71.50
68485;DHT22;55472;50.060;21.960;2023-02-15T08:39:13;3.60;71.30
68485;DHT22;55472;50.060;21.960;2023-02-15T08:41:43;3.70;71.20
68485;DHT22;55472;50.060;21.960;2023-02-15T08:44:11;3.80;71.20
68485;DHT22;55472;50.060;21.960;2023-02-15T08:46:41;3.90;71.00
68485;DHT22;55472;50.060;21.960;2023-02-15T08:49:09;4.10;70.70
68485;DHT22;55472;50.060;21.960;2023-02-15T08:51:40;4.30;69.70
68485;DHT22;55472;50.060;21.960;2023-02-15T08:54:10;4.70;69.50
68485;DHT22;55472;50.060;21.960;2023-02-15T08:56:40;7.20;63.70
68485;DHT22;55472;50.060;21.960;2023-02-15T08:59:16;10.50;55.60
68485;DHT22;55472;50.060;21.960;2023-02-15T09:01:44;13.90;47.50
68485;DHT22;55472;50.060;21.960;2023-02-15T09:04:12;16.20;41.10
68485;DHT22;55472;50.060;21.960;2023-02-15T09:06:40;17.40;38.90
68485;DHT22;55472;50.060;21.960;2023-02-15T09:09:07;18.10;36.60
68485;DHT22;55472;50.060;21.960;2023-02-15T09:11:36;19.30;35.80
68485;DHT22;55472;50.060;21.960;2023-02-15T09:14:09;19.10;34.80
68485;DHT22;55472;50.060;21.960;2023-02-15T09:16:40;17.50;37.00
68485;DHT22;55472;50.060;21.960;2023-02-15T09:19:07;16.10;38.40
68485;DHT22;55472;50.060;21.960;2023-02-15T09:21:35;16.30;38.30
68485;DHT22;55472;50.060;21.960;2023-02-15T09:24:07;16.60;38.10
68485;DHT22;55472;50.060;21.960;2023-02-15T09:26:37;17.20;37.90
68485;DHT22;55472;50.060;21.960;2023-02-15T09:29:09;17.10;36.60
68485;DHT22;55472;50.060;21.960;2023-02-15T09:31:41;16.40;37.80
68485;DHT22;55472;50.060;21.960;2023-02-15T09:34:11;15.40;38.60
68485;DHT22;55472;50.060;21.960;2023-02-15T09:36:39;14.80;40.20
68485;DHT22;55472;50.060;21.960;2023-02-15T09:39:19;14.40;41.00
68485;DHT22;55472;50.060;21.960;2023-02-15T09:50:39;14.00;42.60
68485;DHT22;55472;50.060;21.960;2023-02-15T10:08:17;17.80;34.80
68485;DHT22;55472;50.060;21.960;2023-02-15T10:28:25;12.20;44.40
68485;DHT22;55472;50.060;21.960;2023-02-15T10:34:19;12.60;44.20
68485;DHT22;55472;50.060;21.960;2023-02-15T10:40:01;13.30;42.20
68485;DHT22;55472;50.060;21.960;2023-02-15T10:58:07;12.20;43.40
68485;DHT22;55472;50.060;21.960;2023-02-15T11:06:32;13.50;41.90
68485;DHT22;55472;50.060;21.960;2023-02-15T11:09:05;12.30;42.70
68485;DHT22;55472;50.060;21.960;2023-02-15T11:11:40;12.00;44.20
68485;DHT22;55472;50.060;21.960;2023-02-15T11:17:06;13.30;42.00
68485;DHT22;55472;50.060;21.960;2023-02-15T11:19:47;13.90;41.50
68485;DHT22;55472;50.060;21.960;2023-02-15T11:22:51;14.30;41.00
68485;DHT22;55472;50.060;21.960;2023-02-15T11:25:28;15.00;40.10
68485;DHT22;55472;50.060;21.960;2023-02-15T11:28:00;15.50;38.80
68485;DHT22;55472;50.060;21.960;2023-02-15T11:30:46;15.20;37.70
68485;DHT22;55472;50.060;21.960;2023-02-15T11:33:29;14.80;38.90
68485;DHT22;55472;50.060;21.960;2023-02-15T11:36:06;15.00;39.40
68485;DHT22;55472;50.060;21.960;2023-02-15T11:38:37;15.40;38.40
68485;DHT22;55472;50.060;21.960;2023-02-15T11:41:16;15.00;38.40
68485;DHT22;55472;50.060;21.960;2023-02-15T11:47:02;14.60;39.60
68485;DHT22;55472;50.060;21.960;2023-02-15T11:49:32;14.80;38.60
68485;DHT22;55472;50.060;21.960;2023-02-15T11:52:06;14.40;39.40
68485;DHT22;55472;50.060;21.960;2023-02-15T11:54:36;14.50;39.80
68485;DHT22;55472;50.060;21.960;2023-02-15T12:00:18;15.30;39.00
68485;DHT22;55472;50.060;21.960;2023-02-15T12:02:53;15.60;38.30
68485;DHT22;55472;50.060;21.960;2023-02-15T12:05:23;15.50;38.10
68485;DHT22;55472;50.060;21.960;2023-02-15T12:08:01;15.50;37.60
68485;DHT22;55472;50.060;21.960;2023-02-15T12:11:11;15.50;37.50
68485;DHT22;55472;50.060;21.960;2023-02-15T12:14:05;15.30;37.90
68485;DHT22;55472;50.060;21.960;2023-02-15T12:16:53;14.80;38.30
68485;DHT22;55472;50.060;21.960;2023-02-15T12:22:02;14.70;39.50
68485;DHT22;55472;50.060;21.960;2023-02-15T12:24:32;14.80;39.80
68485;DHT22;55472;50.060;21.960;2023-02-15T12:27:06;15.00;39.50
68485;DHT22;55472;50.060;21.960;2023-02-15T12:32:28;15.10;39.60
68485;DHT22;55472;50.060;21.960;2023-02-15T12:35:12;14.80;39.30
68485;DHT22;55472;50.060;21.960;2023-02-15T12:37:52;14.40;39.40
68485;DHT22;55472;50.060;21.960;2023-02-15T12:40:26;14.30;39.80
68485;DHT22;55472;50.060;21.960;2023-02-15T12:42:57;14.30;39.40
68485;DHT22;55472;50.060;21.960;2023-02-15T12:45:29;14.30;39.10
68485;DHT22;55472;50.060;21.960;2023-02-15T12:50:39;14.30;39.80
68485;DHT22;55472;50.060;21.960;2023-02-15T12:55:56;14.40;39.50
68485;DHT22;55472;50.060;21.960;2023-02-15T12:58:26;14.50;39.30
68485;DHT22;55472;50.060;21.960;2023-02-15T13:03:37;13.90;40.60
68485;DHT22;55472;50.060;21.960;2023-02-15T13:06:05;13.70;40.60
68485;DHT22;55472;50.060;21.960;2023-02-15T13:08:47;12.80;42.40
68485;DHT22;55472;50.060;21.960;2023-02-15T13:11:30;12.90;42.20
68485;DHT22;55472;50.060;21.960;2023-02-15T13:14:20;13.20;42.00
68485;DHT22;55472;50.060;21.960;2023-02-15T13:16:51;13.30;42.40
68485;DHT22;55472;50.060;21.960;2023-02-15T13:19:36;13.50;41.70
68485;DHT22;55472;50.060;21.960;2023-02-15T13:22:15;13.70;41.00
68485;DHT22;55472;50.060;21.960;2023-02-15T13:25:17;14.00;40.50
68485;DHT22;55472;50.060;21.960;2023-02-15T13:27:46;14.10;40.20
68485;DHT22;55472;50.060;21.960;2023-02-15T13:30:28;13.60;40.50
68485;DHT22;55472;50.060;21.960;2023-02-15T13:33:03;13.70;40.70
68485;DHT22;55472;50.060;21.960;2023-02-15T13:35:44;13.70;40.20
68485;DHT22;55472;50.060;21.960;2023-02-15T13:41:12;13.50;41.30
68485;DHT22;55472;50.060;21.960;2023-02-15T13:43:52;13.50;41.50
68485;DHT22;55472;50.060;21.960;2023-02-15T13:47:03;13.50;41.30
68485;DHT22;55472;50.060;21.960;2023-02-15T13:55:02;13.50;41.50
68485;DHT22;55472;50.060;21.960;2023-02-15T13:58:23;13.50;41.80
68485;DHT22;55472;50.060;21.960;2023-02-15T14:01:12;13.60;41.60
68485;DHT22;55472;50.060;21.960;2023-02-15T14:10:34;13.60;41.40
68485;DHT22;55472;50.060;21.960;2023-02-15T14:18:51;13.20;41.60
68485;DHT22;55472;50.060;21.960;2023-02-15T14:26:38;13.10;41.30
68485;DHT22;55472;50.060;21.960;2023-02-15T14:32:39;12.90;41.20
68485;DHT22;55472;50.060;21.960;2023-02-15T14:35:26;12.60;41.80
68485;DHT22;55472;50.060;21.960;2023-02-15T14:49:27;11.80;43.60
68485;DHT22;55472;50.060;21.960;2023-02-15T14:52:03;11.70;44.10
68485;DHT22;55472;50.060;21.960;2023-02-15T15:02:28;11.30;44.70
68485;DHT22;55472;50.060;21.960;2023-02-15T15:05:29;11.20;44.70
68485;DHT22;55472;50.060;21.960;2023-02-15T15:08:01;11.10;44.40
68485;DHT22;55472;50.060;21.960;2023-02-15T15:10:40;11.00;44.70
68485;DHT22;55472;50.060;21.960;2023-02-15T15:19:05;10.60;46.50
68485;DHT22;55472;50.060;21.960;2023-02-15T15:21:53;10.40;45.90
68485;DHT22;55472;50.060;21.960;2023-02-15T15:36:06;9.30;49.10
68485;DHT22;55472;50.060;21.960;2023-02-15T15:41:42;8.80;49.80
68485;DHT22;55472;50.060;21.960;2023-02-15T15:44:53;8.50;50.70
68485;DHT22;55472;50.060;21.960;2023-02-15T15:50:47;8.10;52.30
68485;DHT22;55472;50.060;21.960;2023-02-15T15:53:24;7.90;51.60
68485;DHT22;55472;50.060;21.960;2023-02-15T15:55:56;7.80;53.00
68485;DHT22;55472;50.060;21.960;2023-02-15T15:58:26;7.60;54.70
68485;DHT22;55472;50.060;21.960;2023-02-15T16:01:01;7.50;54.90
68485;DHT22;55472;50.060;21.960;2023-02-15T16:03:49;7.30;55.80
68485;DHT22;55472;50.060;21.960;2023-02-15T16:06:31;7.10;56.40
68485;DHT22;55472;50.060;21.960;2023-02-15T16:09:22;6.90;56.70
68485;DHT22;55472;50.060;21.960;2023-02-15T16:11:58;6.70;57.20
68485;DHT22;55472;50.060;21.960;2023-02-15T16:14:29;6.50;59.20
68485;DHT22;55472;50.060;21.960;2023-02-15T16:17:03;6.30;59.00
68485;DHT22;55472;50.060;21.960;2023-02-15T16:19:39;6.20;59.80
68485;DHT22;55472;50.060;21.960;2023-02-15T16:22:21;6.00;60.40
68485;DHT22;55472;50.060;21.960;2023-02-15T16:27:53;5.70;61.30
68485;DHT22;55472;50.060;21.960;2023-02-15T16:30:30;5.50;61.50
68485;DHT22;55472;50.060;21.960;2023-02-15T16:33:09;5.40;62.60
68485;DHT22;55472;50.060;21.960;2023-02-15T16:35:39;5.30;62.80
68485;DHT22;55472;50.060;21.960;2023-02-15T16:38:10;5.20;63.90
68485;DHT22;55472;50.060;21.960;2023-02-15T16:40:51;5.00;63.90
68485;DHT22;55472;50.060;21.960;2023-02-15T16:43:24;4.90;65.30
68485;DHT22;55472;50.060;21.960;2023-02-15T16:46:08;4.70;64.90
68485;DHT22;55472;50.060;21.960;2023-02-15T16:48:41;4.60;66.00
68485;DHT22;55472;50.060;21.960;2023-02-15T16:51:09;4.50;66.30
68485;DHT22;55472;50.060;21.960;2023-02-15T16:53:37;4.40;67.00
68485;DHT22;55472;50.060;21.960;2023-02-15T16:56:04;4.30;67.40
68485;DHT22;55472;50.060;21.960;2023-02-15T16:58:37;4.10;67.10
68485;DHT22;55472;50.060;21.960;2023-02-15T17:01:09;4.10;68.40
68485;DHT22;55472;50.060;21.960;2023-02-15T17:03:39;4.00;68.60
68485;DHT22;55472;50.060;21.960;2023-02-15T17:09:06;3.80;68.90
68485;DHT22;55472;50.060;21.960;2023-02-15T17:11:41;3.70;69.10
68485;DHT22;55472;50.060;21.960;2023-02-15T17:19:32;3.50;69.50
68485;DHT22;55472;50.060;21.960;2023-02-15T17:22:06;3.40;70.20
68485;DHT22;55472;50.060;21.960;2023-02-15T17:24:41;3.40;71.10
68485;DHT22;55472;50.060;21.960;2023-02-15T17:29:51;3.20;70.70
68485;DHT22;55472;50.060;21.960;2023-02-15T17:32:25;3.20;71.30
68485;DHT22;55472;50.060;21.960;2023-02-15T17:34:57;3.10;71.40
68485;DHT22;55472;50.060;21.960;2023-02-15T17:38:04;3.00;71.60
68485;DHT22;55472;50.060;21.960;2023-02-15T17:40:44;2.90;72.40
68485;DHT22;55472;50.060;21.960;2023-02-15T17:43:10;2.80;72.20
68485;DHT22;55472;50.060;21.960;2023-02-15T17:45:46;2.80;72.50
68485;DHT22;55472;50.060;21.960;2023-02-15T17:48:21;2.70;72.20
68485;DHT22;55472;50.060;21.960;2023-02-15T17:50:49;2.60;72.20
68485;DHT22;55472;50.060;21.960;2023-02-15T17:53:18;2.60;73.20
68485;DHT22;55472;50.060;21.960;2023-02-15T17:55:45;2.50;73.00
68485;DHT22;55472;50.060;21.960;2023-02-15T17:58:13;2.40;73.60
68485;DHT22;55472;50.060;21.960;2023-02-15T18:00:47;2.40;73.40
68485;DHT22;55472;50.060;21.960;2023-02-15T18:03:54;2.40;73.80
68485;DHT22;55472;50.060;21.960;2023-02-15T18:06:40;2.30;73.60
68485;DHT22;55472;50.060;21.960;2023-02-15T18:09:25;2.30;73.80
68485;DHT22;55472;50.060;21.960;2023-02-15T18:12:28;2.20;74.10
68485;DHT22;55472;50.060;21.960;2023-02-15T18:14:56;2.10;74.60
68485;DHT22;55472;50.060;21.960;2023-02-15T18:17:35;2.10;74.70
68485;DHT22;55472;50.060;21.960;2023-02-15T18:20:23;2.10;74.90
68485;DHT22;55472;50.060;21.960;2023-02-15T18:22:51;2.00;74.80
68485;DHT22;55472;50.060;21.960;2023-02-15T18:25:20;2.00;74.60
68485;DHT22;55472;50.060;21.960;2023-02-15T18:27:49;1.90;74.70
68485;DHT22;55472;50.060;21.960;2023-02-15T18:30:18;1.90;75.00
68485;DHT22;55472;50.060;21.960;2023-02-15T18:32:46;1.80;75.30
68485;DHT22;55472;50.060;21.960;2023-02-15T18:35:16;1.80;75.10
68485;DHT22;55472;50.060;21.960;2023-02-15T18:37:44;1.70;75.00
68485;DHT22;55472;50.060;21.960;2023-02-15T18:40:19;1.70;74.90
68485;DHT22;55472;50.060;21.960;2023-02-15T18:42:47;1.70;75.30
68485;DHT22;55472;50.060;21.960;2023-02-15T18:45:21;1.70;74.70
68485;DHT22;55472;50.060;21.960;2023-02-15T18:47:53;1.70;74.40
68485;DHT22;55472;50.060;21.960;2023-02-15T18:50:20;1.70;74.90
68485;DHT22;55472;50.060;21.960;2023-02-15T18:52:48;1.70;74.80
68485;DHT22;55472;50.060;21.960;2023-02-15T18:55:25;1.70;75.40
68485;DHT22;55472;50.060;21.960;2023-02-15T18:57:55;1.70;75.30
68485;DHT22;55472;50.060;21.960;2023-02-15T19:00:27;1.70;75.00
68485;DHT22;55472;50.060;21.960;2023-02-15T19:02:55;1.60;75.50
68485;DHT22;55472;50.060;21.960;2023-02-15T19:05:22;1.60;75.20
68485;DHT22;55472;50.060;21.960;2023-02-15T19:07:49;1.60;75.40
68485;DHT22;55472;50.060;21.960;2023-02-15T19:10:22;1.60;75.20
68485;DHT22;55472;50.060;21.960;2023-02-15T19:12:50;1.60;75.30
68485;DHT22;55472;50.060;21.960;2023-02-15T19:15:25;1.70;75.50
68485;DHT22;55472;50.060;21.960;2023-02-15T19:17:55;1.70;75.70
68485;DHT22;55472;50.060;21.960;2023-02-15T19:20:29;1.70;75.50
68485;DHT22;55472;50.060;21.960;2023-02-15T19:22:58;1.70;75.90
68485;DHT22;55472;50.060;21.960;2023-02-15T19:25:30;1.70;76.20
68485;DHT22;55472;50.060;21.960;2023-02-15T19:27:57;1.70;76.30
68485;DHT22;55472;50.060;21.960;2023-02-15T19:30:26;1.70;76.30
68485;DHT22;55472;50.060;21.960;2023-02-15T19:32:56;1.70;75.70
68485;DHT22;55472;50.060;21.960;2023-02-15T19:35:31;1.80;76.10
68485;DHT22;55472;50.060;21.960;2023-02-15T19:38:02;1.70;75.80
68485;DHT22;55472;50.060;21.960;2023-02-15T19:40:34;1.70;75.90
68485;DHT22;55472;50.060;21.960;2023-02-15T19:43:02;1.70;76.00